sensor_id;sensor_type;location;lat;lon;timestamp;P1;durP1;ratioP1;P2;durP2;ratioP2
80104;SDS011;69865;47.648;19.030;2023-12-04T00:00:07;23.53;;;22.60;;
80104;SDS011;69865;47.648;19.030;2023-12-04T00:00:40;23.03;;;22.03;;
80104;SDS011;69865;47.648;19.030;2023-12-04T00:01:12;23.87;;;22.67;;
80104;SDS011;69865;47.648;19.030;2023-12-04T00:01:44;25.33;;;23.97;;
80104;SDS011;69865;47.648;19.030;2023-12-04T00:02:17;23.80;;;22.63;;
80104;SDS011;69865;47.648;19.030;2023-12-04T00:02:49;22.87;;;21.77;;
80104;SDS011;69865;47.648;19.030;2023-12-04T00:03:22;22.93;;;21.97;;
80104;SDS011;69865;47.648;19.030;2023-12-04T00:03:55;23.23;;;22.37;;
80104;SDS011;69865;47.648;19.030;2023-12-04T00:04:27;23.07;;;22.13;;
80104;SDS011;69865;47.648;19.030;2023-12-04T00:05:00;23.97;;;22.83;;
80104;SDS011;69865;47.648;19.030;2023-12-04T00:05:33;23.70;;;22.57;;
80104;SDS011;69865;47.648;19.030;2023-12-04T00:06:05;23.63;;;22.47;;
80104;SDS011;69865;47.648;19.030;2023-12-04T00:06:38;22.90;;;21.87;;
80104;SDS011;69865;47.648;19.030;2023-12-04T00:07:13;23.43;;;22.33;;
80104;SDS011;69865;47.648;19.030;2023-12-04T00:07:45;24.43;;;23.33;;
80104;SDS011;69865;47.648;19.030;2023-12-04T00:08:17;24.03;;;22.93;;
80104;SDS011;69865;47.648;19.030;2023-12-04T00:08:50;23.67;;;22.47;;
80104;SDS011;69865;47.648;19.030;2023-12-04T00:09:22;24.40;;;23.07;;
80104;SDS011;69865;47.648;19.030;2023-12-04T00:09:54;24.97;;;23.77;;
80104;SDS011;69865;47.648;19.030;2023-12-04T00:10:26;24.10;;;23.00;;
80104;SDS011;69865;47.648;19.030;2023-12-04T00:10:58;24.97;;;23.70;;
80104;SDS011;69865;47.648;19.030;2023-12-04T00:11:30;25.83;;;24.63;;
80104;SDS011;69865;47.648;19.030;2023-12-04T00:12:03;27.27;;;25.97;;
80104;SDS011;69865;47.648;19.030;2023-12-04T00:12:36;27.60;;;26.40;;
80104;SDS011;69865;47.648;19.030;2023-12-04T00:13:11;27.87;;;26.83;;
80104;SDS011;69865;47.648;19.030;2023-12-04T00:13:43;26.37;;;25.23;;
80104;SDS011;69865;47.648;19.030;2023-12-04T00:14:15;25.10;;;23.93;;
80104;SDS011;69865;47.648;19.030;2023-12-04T00:14:47;26.43;;;25.20;;
80104;SDS011;69865;47.648;19.030;2023-12-04T00:15:22;25.97;;;24.67;;
80104;SDS011;69865;47.648;19.030;2023-12-04T00:15:54;25.70;;;24.47;;
80104;SDS011;69865;47.648;19.030;2023-12-04T00:16:26;27.23;;;26.07;;
80104;SDS011;69865;47.648;19.030;2023-12-04T00:16:58;25.63;;;24.53;;
80104;SDS011;69865;47.648;19.030;2023-12-04T00:17:30;25.60;;;24.60;;
80104;SDS011;69865;47.648;19.030;2023-12-04T00:18:03;26.40;;;25.43;;
80104;SDS011;69865;47.648;19.030;2023-12-04T00:18:35;27.37;;;26.30;;
80104;SDS011;69865;47.648;19.030;2023-12-04T00:19:07;27.87;;;26.77;;
80104;SDS011;69865;47.648;19.030;2023-12-04T00:19:40;27.63;;;26.60;;
80104;SDS011;69865;47.648;19.030;2023-12-04T00:20:12;26.93;;;25.83;;
80104;SDS011;69865;47.648;19.030;2023-12-04T00:20:48;27.37;;;26.33;;
80104;SDS011;69865;47.648;19.030;2023-12-04T00:21:20;29.67;;;28.47;;
80104;SDS011;69865;47.648;19.030;2023-12-04T00:21:52;31.43;;;30.23;;
80104;SDS011;69865;47.648;19.030;2023-12-04T00:22:24;35.60;;;34.23;;
80104;SDS011;69865;47.648;19.030;2023-12-04T00:22:56;38.63;;;36.87;;
80104;SDS011;69865;47.648;19.030;2023-12-04T00:23:28;39.30;;;37.63;;
80104;SDS011;69865;47.648;19.030;2023-12-04T00:24:01;42.03;;;40.50;;
80104;SDS011;69865;47.648;19.030;2023-12-04T00:24:33;44.47;;;42.60;;
80104;SDS011;69865;47.648;19.030;2023-12-04T00:25:06;46.43;;;44.23;;
80104;SDS011;69865;47.648;19.030;2023-12-04T00:25:39;42.73;;;40.97;;
80104;SDS011;69865;47.648;19.030;2023-12-04T00:26:12;44.87;;;42.70;;
80104;SDS011;69865;47.648;19.030;2023-12-04T00:26:44;47.00;;;44.97;;
80104;SDS011;69865;47.648;19.030;2023-12-04T00:27:16;45.87;;;44.27;;
80104;SDS011;69865;47.648;19.030;2023-12-04T00:27:48;45.13;;;43.53;;
80104;SDS011;69865;47.648;19.030;2023-12-04T00:28:22;46.10;;;44.33;;
80104;SDS011;69865;47.648;19.030;2023-12-04T00:28:55;46.87;;;44.83;;
80104;SDS011;69865;47.648;19.030;2023-12-04T00:29:27;51.23;;;49.17;;
80104;SDS011;69865;47.648;19.030;2023-12-04T00:30:00;54.50;;;52.23;;
80104;SDS011;69865;47.648;19.030;2023-12-04T00:30:32;64.70;;;61.73;;
80104;SDS011;69865;47.648;19.030;2023-12-04T00:31:05;79.20;;;74.63;;
80104;SDS011;69865;47.648;19.030;2023-12-04T00:31:39;78.27;;;73.37;;
80104;SDS011;69865;47.648;19.030;2023-12-04T00:32:11;68.33;;;64.47;;
80104;SDS011;69865;47.648;19.030;2023-12-04T00:32:43;59.80;;;57.20;;
80104;SDS011;69865;47.648;19.030;2023-12-04T00:33:15;55.13;;;52.97;;
80104;SDS011;69865;47.648;19.030;2023-12-04T00:33:48;54.27;;;52.20;;
80104;SDS011;69865;47.648;19.030;2023-12-04T00:34:20;50.40;;;48.47;;
80104;SDS011;69865;47.648;19.030;2023-12-04T00:34:52;47.63;;;45.90;;
80104;SDS011;69865;47.648;19.030;2023-12-04T00:35:24;48.30;;;46.33;;
80104;SDS011;69865;47.648;19.030;2023-12-04T00:35:57;48.07;;;46.33;;
80104;SDS011;69865;47.648;19.030;2023-12-04T00:36:30;45.37;;;43.83;;
80104;SDS011;69865;47.648;19.030;2023-12-04T00:37:02;44.37;;;42.97;;
80104;SDS011;69865;47.648;19.030;2023-12-04T00:37:34;42.03;;;40.70;;
80104;SDS011;69865;47.648;19.030;2023-12-04T00:38:06;41.57;;;40.20;;
80104;SDS011;69865;47.648;19.030;2023-12-04T00:38:39;43.30;;;41.83;;
80104;SDS011;69865;47.648;19.030;2023-12-04T00:39:11;42.10;;;40.70;;
80104;SDS011;69865;47.648;19.030;2023-12-04T00:39:43;43.47;;;41.80;;
80104;SDS011;69865;47.648;19.030;2023-12-04T00:40:15;41.53;;;39.87;;
80104;SDS011;69865;47.648;19.030;2023-12-04T00:40:48;42.03;;;40.30;;
80104;SDS011;69865;47.648;19.030;2023-12-04T00:41:20;42.83;;;40.90;;
80104;SDS011;69865;47.648;19.030;2023-12-04T00:41:55;43.53;;;41.13;;
80104;SDS011;69865;47.648;19.030;2023-12-04T00:42:27;40.13;;;38.17;;
80104;SDS011;69865;47.648;19.030;2023-12-04T00:43:00;39.03;;;37.40;;
80104;SDS011;69865;47.648;19.030;2023-12-04T00:43:35;38.60;;;37.00;;
80104;SDS011;69865;47.648;19.030;2023-12-04T00:44:08;39.87;;;38.00;;
80104;SDS011;69865;47.648;19.030;2023-12-04T00:44:40;40.50;;;38.50;;
80104;SDS011;69865;47.648;19.030;2023-12-04T00:45:12;39.90;;;38.23;;
80104;SDS011;69865;47.648;19.030;2023-12-04T00:45:44;38.73;;;37.30;;
80104;SDS011;69865;47.648;19.030;2023-12-04T00:46:16;40.00;;;38.33;;
80104;SDS011;69865;47.648;19.030;2023-12-04T00:46:49;39.57;;;37.80;;
80104;SDS011;69865;47.648;19.030;2023-12-04T00:47:21;38.23;;;36.53;;
80104;SDS011;69865;47.648;19.030;2023-12-04T00:47:53;38.43;;;36.80;;
80104;SDS011;69865;47.648;19.030;2023-12-04T00:48:25;38.90;;;37.00;;
80104;SDS011;69865;47.648;19.030;2023-12-04T00:48:58;39.27;;;37.27;;
80104;SDS011;69865;47.648;19.030;2023-12-04T00:49:31;39.80;;;37.50;;
80104;SDS011;69865;47.648;19.030;2023-12-04T00:50:03;39.23;;;36.97;;
80104;SDS011;69865;47.648;19.030;2023-12-04T00:50:36;38.77;;;36.63;;
80104;SDS011;69865;47.648;19.030;2023-12-04T00:51:09;38.50;;;36.60;;
80104;SDS011;69865;47.648;19.030;2023-12-04T00:51:41;37.77;;;35.83;;
80104;SDS011;69865;47.648;19.030;2023-12-04T00:52:13;38.07;;;36.10;;
80104;SDS011;69865;47.648;19.030;2023-12-04T00:52:45;37.83;;;35.87;;
80104;SDS011;69865;47.648;19.030;2023-12-04T00:53:21;38.27;;;36.40;;
80104;SDS011;69865;47.648;19.030;2023-12-04T00:53:53;38.57;;;36.83;;
80104;SDS011;69865;47.648;19.030;2023-12-04T00:54:25;38.57;;;36.70;;
80104;SDS011;69865;47.648;19.030;2023-12-04T00:54:58;38.63;;;36.83;;
80104;SDS011;69865;47.648;19.030;2023-12-04T00:55:30;37.33;;;35.53;;
80104;SDS011;69865;47.648;19.030;2023-12-04T00:56:03;37.40;;;35.70;;
80104;SDS011;69865;47.648;19.030;2023-12-04T00:56:37;39.50;;;37.53;;
80104;SDS011;69865;47.648;19.030;2023-12-04T00:57:09;37.77;;;36.27;;
80104;SDS011;69865;47.648;19.030;2023-12-04T00:57:41;34.60;;;33.43;;
80104;SDS011;69865;47.648;19.030;2023-12-04T00:58:14;35.23;;;33.87;;
80104;SDS011;69865;47.648;19.030;2023-12-04T00:58:47;34.30;;;32.93;;
80104;SDS011;69865;47.648;19.030;2023-12-04T00:59:19;34.93;;;33.40;;
80104;SDS011;69865;47.648;19.030;2023-12-04T00:59:51;32.97;;;31.60;;
80104;SDS011;69865;47.648;19.030;2023-12-04T01:00:23;33.33;;;31.73;;
80104;SDS011;69865;47.648;19.030;2023-12-04T01:00:59;33.53;;;32.03;;
80104;SDS011;69865;47.648;19.030;2023-12-04T01:01:31;32.33;;;31.00;;
80104;SDS011;69865;47.648;19.030;2023-12-04T01:02:03;31.77;;;30.63;;
80104;SDS011;69865;47.648;19.030;2023-12-04T01:02:36;30.63;;;29.23;;
80104;SDS011;69865;47.648;19.030;2023-12-04T01:03:09;30.97;;;29.40;;
80104;SDS011;69865;47.648;19.030;2023-12-04T01:03:41;30.40;;;28.87;;
80104;SDS011;69865;47.648;19.030;2023-12-04T01:04:15;30.73;;;28.90;;
80104;SDS011;69865;47.648;19.030;2023-12-04T01:04:47;34.90;;;32.87;;
80104;SDS011;69865;47.648;19.030;2023-12-04T01:05:19;35.67;;;33.93;;
80104;SDS011;69865;47.648;19.030;2023-12-04T01:05:51;35.23;;;33.63;;
80104;SDS011;69865;47.648;19.030;2023-12-04T01:06:23;36.43;;;34.70;;
80104;SDS011;69865;47.648;19.030;2023-12-04T01:06:55;33.77;;;32.07;;
80104;SDS011;69865;47.648;19.030;2023-12-04T01:07:28;33.70;;;32.17;;
80104;SDS011;69865;47.648;19.030;2023-12-04T01:08:02;32.77;;;31.63;;
80104;SDS011;69865;47.648;19.030;2023-12-04T01:08:34;30.50;;;29.33;;
80104;SDS011;69865;47.648;19.030;2023-12-04T01:09:06;29.37;;;28.00;;
80104;SDS011;69865;47.648;19.030;2023-12-04T01:09:38;29.27;;;28.03;;
80104;SDS011;69865;47.648;19.030;2023-12-04T01:10:10;28.00;;;26.93;;
80104;SDS011;69865;47.648;19.030;2023-12-04T01:10:42;28.57;;;27.37;;
80104;SDS011;69865;47.648;19.030;2023-12-04T01:11:15;28.77;;;27.67;;
80104;SDS011;69865;47.648;19.030;2023-12-04T01:11:48;28.53;;;27.03;;
80104;SDS011;69865;47.648;19.030;2023-12-04T01:12:20;29.53;;;27.93;;
80104;SDS011;69865;47.648;19.030;2023-12-04T01:12:52;28.97;;;27.50;;
80104;SDS011;69865;47.648;19.030;2023-12-04T01:13:31;27.83;;;26.77;;
80104;SDS011;69865;47.648;19.030;2023-12-04T01:14:05;26.80;;;25.57;;
80104;SDS011;69865;47.648;19.030;2023-12-04T01:14:37;28.60;;;27.37;;
80104;SDS011;69865;47.648;19.030;2023-12-04T01:15:12;28.57;;;27.17;;
80104;SDS011;69865;47.648;19.030;2023-12-04T01:15:44;28.20;;;26.67;;
80104;SDS011;69865;47.648;19.030;2023-12-04T01:16:17;29.00;;;27.47;;
80104;SDS011;69865;47.648;19.030;2023-12-04T01:16:49;29.17;;;28.03;;
80104;SDS011;69865;47.648;19.030;2023-12-04T01:17:21;29.03;;;28.17;;
80104;SDS011;69865;47.648;19.030;2023-12-04T01:17:54;28.77;;;27.83;;
80104;SDS011;69865;47.648;19.030;2023-12-04T01:18:26;27.70;;;26.77;;
80104;SDS011;69865;47.648;19.030;2023-12-04T01:18:59;27.53;;;26.57;;
80104;SDS011;69865;47.648;19.030;2023-12-04T01:19:31;27.50;;;26.27;;
80104;SDS011;69865;47.648;19.030;2023-12-04T01:20:07;29.30;;;27.97;;
80104;SDS011;69865;47.648;19.030;2023-12-04T01:20:39;27.23;;;26.03;;
80104;SDS011;69865;47.648;19.030;2023-12-04T01:21:12;27.60;;;26.53;;
80104;SDS011;69865;47.648;19.030;2023-12-04T01:21:47;28.80;;;27.53;;
80104;SDS011;69865;47.648;19.030;2023-12-04T01:22:20;28.63;;;27.30;;
80104;SDS011;69865;47.648;19.030;2023-12-04T01:22:52;29.50;;;28.20;;
80104;SDS011;69865;47.648;19.030;2023-12-04T01:23:24;27.70;;;26.37;;
80104;SDS011;69865;47.648;19.030;2023-12-04T01:23:59;26.87;;;25.57;;
80104;SDS011;69865;47.648;19.030;2023-12-04T01:24:31;26.67;;;25.40;;
80104;SDS011;69865;47.648;19.030;2023-12-04T01:25:04;26.50;;;25.30;;
80104;SDS011;69865;47.648;19.030;2023-12-04T01:25:38;27.23;;;25.80;;
80104;SDS011;69865;47.648;19.030;2023-12-04T01:26:10;27.07;;;25.73;;
80104;SDS011;69865;47.648;19.030;2023-12-04T01:26:42;26.63;;;25.37;;
80104;SDS011;69865;47.648;19.030;2023-12-04T01:27:14;26.97;;;25.67;;
80104;SDS011;69865;47.648;19.030;2023-12-04T01:27:46;25.73;;;24.27;;
80104;SDS011;69865;47.648;19.030;2023-12-04T01:28:18;26.37;;;24.83;;
80104;SDS011;69865;47.648;19.030;2023-12-04T01:28:50;26.47;;;24.90;;
80104;SDS011;69865;47.648;19.030;2023-12-04T01:29:23;25.17;;;23.67;;
80104;SDS011;69865;47.648;19.030;2023-12-04T01:29:56;24.20;;;22.73;;
80104;SDS011;69865;47.648;19.030;2023-12-04T01:30:28;24.77;;;23.40;;
80104;SDS011;69865;47.648;19.030;2023-12-04T01:31:00;24.80;;;23.40;;
80104;SDS011;69865;47.648;19.030;2023-12-04T01:31:32;23.97;;;22.67;;
80104;SDS011;69865;47.648;19.030;2023-12-04T01:32:04;23.63;;;22.57;;
80104;SDS011;69865;47.648;19.030;2023-12-04T01:32:40;23.30;;;22.50;;
80104;SDS011;69865;47.648;19.030;2023-12-04T01:33:12;24.10;;;23.20;;
80104;SDS011;69865;47.648;19.030;2023-12-04T01:33:45;27.07;;;26.00;;
80104;SDS011;69865;47.648;19.030;2023-12-04T01:34:17;28.07;;;26.83;;
80104;SDS011;69865;47.648;19.030;2023-12-04T01:34:49;28.73;;;27.30;;
80104;SDS011;69865;47.648;19.030;2023-12-04T01:35:22;29.67;;;28.23;;
80104;SDS011;69865;47.648;19.030;2023-12-04T01:35:54;29.90;;;28.37;;
80104;SDS011;69865;47.648;19.030;2023-12-04T01:36:26;28.97;;;27.57;;
80104;SDS011;69865;47.648;19.030;2023-12-04T01:36:58;28.10;;;26.80;;
80104;SDS011;69865;47.648;19.030;2023-12-04T01:37:30;29.10;;;27.57;;
80104;SDS011;69865;47.648;19.030;2023-12-04T01:38:06;26.13;;;24.90;;
80104;SDS011;69865;47.648;19.030;2023-12-04T01:38:38;25.63;;;24.57;;
80104;SDS011;69865;47.648;19.030;2023-12-04T01:39:10;26.63;;;25.47;;
80104;SDS011;69865;47.648;19.030;2023-12-04T01:39:46;24.87;;;23.60;;
80104;SDS011;69865;47.648;19.030;2023-12-04T01:40:18;27.13;;;25.60;;
80104;SDS011;69865;47.648;19.030;2023-12-04T01:40:50;27.33;;;25.77;;
80104;SDS011;69865;47.648;19.030;2023-12-04T01:41:25;26.57;;;25.17;;
80104;SDS011;69865;47.648;19.030;2023-12-04T01:42:00;26.73;;;25.50;;
80104;SDS011;69865;47.648;19.030;2023-12-04T01:42:32;26.17;;;25.17;;
80104;SDS011;69865;47.648;19.030;2023-12-04T01:43:05;26.30;;;25.23;;
80104;SDS011;69865;47.648;19.030;2023-12-04T01:43:40;26.37;;;25.03;;
80104;SDS011;69865;47.648;19.030;2023-12-04T01:44:12;26.97;;;25.43;;
80104;SDS011;69865;47.648;19.030;2023-12-04T01:44:46;27.60;;;25.93;;
80104;SDS011;69865;47.648;19.030;2023-12-04T01:45:18;27.30;;;25.73;;
80104;SDS011;69865;47.648;19.030;2023-12-04T01:45:50;27.07;;;25.33;;
80104;SDS011;69865;47.648;19.030;2023-12-04T01:46:24;26.43;;;24.67;;
80104;SDS011;69865;47.648;19.030;2023-12-04T01:46:57;25.87;;;24.37;;
80104;SDS011;69865;47.648;19.030;2023-12-04T01:47:30;23.67;;;22.53;;
80104;SDS011;69865;47.648;19.030;2023-12-04T01:48:02;22.87;;;21.83;;
80104;SDS011;69865;47.648;19.030;2023-12-04T01:48:35;24.10;;;22.77;;
80104;SDS011;69865;47.648;19.030;2023-12-04T01:49:08;23.57;;;22.20;;
80104;SDS011;69865;47.648;19.030;2023-12-04T01:49:41;24.20;;;22.87;;
80104;SDS011;69865;47.648;19.030;2023-12-04T01:50:16;22.63;;;21.57;;
80104;SDS011;69865;47.648;19.030;2023-12-04T01:50:49;24.10;;;22.87;;
80104;SDS011;69865;47.648;19.030;2023-12-04T01:51:22;24.17;;;22.77;;
80104;SDS011;69865;47.648;19.030;2023-12-04T01:51:56;24.00;;;22.60;;
80104;SDS011;69865;47.648;19.030;2023-12-04T01:52:29;22.40;;;21.23;;
80104;SDS011;69865;47.648;19.030;2023-12-04T01:53:02;23.33;;;21.90;;
80104;SDS011;69865;47.648;19.030;2023-12-04T01:53:36;22.93;;;21.50;;
80104;SDS011;69865;47.648;19.030;2023-12-04T01:54:11;21.97;;;20.67;;
80104;SDS011;69865;47.648;19.030;2023-12-04T01:54:43;21.23;;;20.17;;
80104;SDS011;69865;47.648;19.030;2023-12-04T01:55:19;20.50;;;19.53;;
80104;SDS011;69865;47.648;19.030;2023-12-04T01:55:52;21.37;;;20.37;;
80104;SDS011;69865;47.648;19.030;2023-12-04T01:56:28;21.17;;;20.17;;
80104;SDS011;69865;47.648;19.030;2023-12-04T01:57:02;22.43;;;21.20;;
80104;SDS011;69865;47.648;19.030;2023-12-04T01:57:36;21.70;;;20.60;;
80104;SDS011;69865;47.648;19.030;2023-12-04T01:58:08;21.60;;;20.60;;
80104;SDS011;69865;47.648;19.030;2023-12-04T01:58:42;21.93;;;20.73;;
80104;SDS011;69865;47.648;19.030;2023-12-04T01:59:14;21.67;;;20.53;;
80104;SDS011;69865;47.648;19.030;2023-12-04T01:59:48;21.87;;;20.83;;
80104;SDS011;69865;47.648;19.030;2023-12-04T02:00:20;22.10;;;20.87;;
80104;SDS011;69865;47.648;19.030;2023-12-04T02:00:53;22.70;;;21.40;;
80104;SDS011;69865;47.648;19.030;2023-12-04T02:01:26;22.70;;;21.37;;
80104;SDS011;69865;47.648;19.030;2023-12-04T02:01:59;22.63;;;21.57;;
80104;SDS011;69865;47.648;19.030;2023-12-04T02:02:32;22.10;;;21.13;;
80104;SDS011;69865;47.648;19.030;2023-12-04T02:03:04;22.33;;;21.23;;
80104;SDS011;69865;47.648;19.030;2023-12-04T02:03:38;22.93;;;21.87;;
80104;SDS011;69865;47.648;19.030;2023-12-04T02:04:12;22.50;;;21.37;;
80104;SDS011;69865;47.648;19.030;2023-12-04T02:04:45;22.60;;;21.50;;
80104;SDS011;69865;47.648;19.030;2023-12-04T02:05:18;21.67;;;20.57;;
80104;SDS011;69865;47.648;19.030;2023-12-04T02:05:52;22.50;;;21.43;;
80104;SDS011;69865;47.648;19.030;2023-12-04T02:06:24;24.07;;;22.73;;
80104;SDS011;69865;47.648;19.030;2023-12-04T02:06:57;24.83;;;23.37;;
80104;SDS011;69865;47.648;19.030;2023-12-04T02:07:29;23.23;;;21.77;;
80104;SDS011;69865;47.648;19.030;2023-12-04T02:08:02;24.13;;;22.73;;
80104;SDS011;69865;47.648;19.030;2023-12-04T02:08:35;24.00;;;22.63;;
80104;SDS011;69865;47.648;19.030;2023-12-04T02:09:10;23.47;;;22.10;;
80104;SDS011;69865;47.648;19.030;2023-12-04T02:09:43;22.50;;;21.37;;
80104;SDS011;69865;47.648;19.030;2023-12-04T02:10:15;22.17;;;21.00;;
80104;SDS011;69865;47.648;19.030;2023-12-04T02:10:50;23.47;;;22.23;;
80104;SDS011;69865;47.648;19.030;2023-12-04T02:11:23;23.93;;;22.57;;
80104;SDS011;69865;47.648;19.030;2023-12-04T02:11:55;23.77;;;22.60;;
80104;SDS011;69865;47.648;19.030;2023-12-04T02:12:29;24.07;;;22.97;;
80104;SDS011;69865;47.648;19.030;2023-12-04T02:13:02;25.30;;;23.53;;
80104;SDS011;69865;47.648;19.030;2023-12-04T02:13:35;24.70;;;22.90;;
80104;SDS011;69865;47.648;19.030;2023-12-04T02:14:08;25.50;;;23.93;;
80104;SDS011;69865;47.648;19.030;2023-12-04T02:14:40;24.30;;;22.70;;
80104;SDS011;69865;47.648;19.030;2023-12-04T02:15:14;24.43;;;22.93;;
80104;SDS011;69865;47.648;19.030;2023-12-04T02:15:46;24.20;;;22.80;;
80104;SDS011;69865;47.648;19.030;2023-12-04T02:16:23;25.00;;;23.60;;
80104;SDS011;69865;47.648;19.030;2023-12-04T02:17:00;24.20;;;22.80;;
80104;SDS011;69865;47.648;19.030;2023-12-04T02:17:42;23.70;;;22.40;;
80104;SDS011;69865;47.648;19.030;2023-12-04T02:18:16;23.73;;;22.40;;
80104;SDS011;69865;47.648;19.030;2023-12-04T02:18:50;23.27;;;22.20;;
80104;SDS011;69865;47.648;19.030;2023-12-04T02:19:23;24.03;;;23.07;;
80104;SDS011;69865;47.648;19.030;2023-12-04T02:19:55;23.57;;;22.53;;
80104;SDS011;69865;47.648;19.030;2023-12-04T02:20:30;23.70;;;22.77;;
80104;SDS011;69865;47.648;19.030;2023-12-04T02:21:06;22.87;;;22.03;;
80104;SDS011;69865;47.648;19.030;2023-12-04T02:21:39;22.07;;;21.20;;
80104;SDS011;69865;47.648;19.030;2023-12-04T02:22:14;21.10;;;20.27;;
80104;SDS011;69865;47.648;19.030;2023-12-04T02:22:46;22.10;;;21.13;;
80104;SDS011;69865;47.648;19.030;2023-12-04T02:23:18;23.83;;;22.63;;
80104;SDS011;69865;47.648;19.030;2023-12-04T02:23:51;23.30;;;22.10;;
80104;SDS011;69865;47.648;19.030;2023-12-04T02:24:24;22.57;;;21.47;;
80104;SDS011;69865;47.648;19.030;2023-12-04T02:24:58;22.37;;;21.40;;
80104;SDS011;69865;47.648;19.030;2023-12-04T02:25:30;22.40;;;21.60;;
80104;SDS011;69865;47.648;19.030;2023-12-04T02:26:09;22.00;;;21.13;;
80104;SDS011;69865;47.648;19.030;2023-12-04T02:26:47;22.57;;;21.30;;
80104;SDS011;69865;47.648;19.030;2023-12-04T02:27:30;21.80;;;20.70;;
80104;SDS011;69865;47.648;19.030;2023-12-04T02:28:10;21.57;;;20.63;;
80104;SDS011;69865;47.648;19.030;2023-12-04T02:28:49;22.80;;;21.80;;
80104;SDS011;69865;47.648;19.030;2023-12-04T02:29:29;23.17;;;21.90;;
80104;SDS011;69865;47.648;19.030;2023-12-04T02:30:11;22.70;;;21.63;;
80104;SDS011;69865;47.648;19.030;2023-12-04T02:30:44;23.57;;;22.33;;
80104;SDS011;69865;47.648;19.030;2023-12-04T02:31:20;23.50;;;22.10;;
80104;SDS011;69865;47.648;19.030;2023-12-04T02:31:56;22.43;;;21.33;;
80104;SDS011;69865;47.648;19.030;2023-12-04T02:32:33;22.27;;;21.27;;
80104;SDS011;69865;47.648;19.030;2023-12-04T02:33:11;22.63;;;21.57;;
80104;SDS011;69865;47.648;19.030;2023-12-04T02:33:45;23.27;;;22.13;;
80104;SDS011;69865;47.648;19.030;2023-12-04T02:34:23;22.97;;;21.73;;
80104;SDS011;69865;47.648;19.030;2023-12-04T02:34:57;22.97;;;21.73;;
80104;SDS011;69865;47.648;19.030;2023-12-04T02:35:34;22.90;;;21.47;;
80104;SDS011;69865;47.648;19.030;2023-12-04T02:36:09;21.23;;;19.90;;
80104;SDS011;69865;47.648;19.030;2023-12-04T02:36:43;22.07;;;20.73;;
80104;SDS011;69865;47.648;19.030;2023-12-04T02:37:17;22.17;;;21.17;;
80104;SDS011;69865;47.648;19.030;2023-12-04T02:37:50;23.27;;;22.10;;
80104;SDS011;69865;47.648;19.030;2023-12-04T02:38:24;21.87;;;20.63;;
80104;SDS011;69865;47.648;19.030;2023-12-04T02:38:59;22.30;;;21.03;;
80104;SDS011;69865;47.648;19.030;2023-12-04T02:39:31;22.63;;;21.40;;
80104;SDS011;69865;47.648;19.030;2023-12-04T02:40:04;22.43;;;21.17;;
80104;SDS011;69865;47.648;19.030;2023-12-04T02:40:38;22.23;;;21.13;;
80104;SDS011;69865;47.648;19.030;2023-12-04T02:41:11;22.50;;;21.47;;
80104;SDS011;69865;47.648;19.030;2023-12-04T02:41:43;22.17;;;21.23;;
80104;SDS011;69865;47.648;19.030;2023-12-04T02:42:15;22.23;;;21.30;;
80104;SDS011;69865;47.648;19.030;2023-12-04T02:42:47;23.37;;;22.23;;
80104;SDS011;69865;47.648;19.030;2023-12-04T02:43:19;23.60;;;22.33;;
80104;SDS011;69865;47.648;19.030;2023-12-04T02:43:52;22.50;;;21.37;;
80104;SDS011;69865;47.648;19.030;2023-12-04T02:44:24;22.47;;;21.60;;
80104;SDS011;69865;47.648;19.030;2023-12-04T02:44:56;21.80;;;21.13;;
80104;SDS011;69865;47.648;19.030;2023-12-04T02:45:28;21.50;;;20.83;;
80104;SDS011;69865;47.648;19.030;2023-12-04T02:46:03;21.37;;;20.43;;
80104;SDS011;69865;47.648;19.030;2023-12-04T02:46:36;22.73;;;21.43;;
80104;SDS011;69865;47.648;19.030;2023-12-04T02:47:08;24.17;;;22.83;;
80104;SDS011;69865;47.648;19.030;2023-12-04T02:47:40;24.23;;;22.93;;
80104;SDS011;69865;47.648;19.030;2023-12-04T02:48:13;24.47;;;23.13;;
80104;SDS011;69865;47.648;19.030;2023-12-04T02:48:49;21.70;;;20.60;;
80104;SDS011;69865;47.648;19.030;2023-12-04T02:49:21;22.63;;;21.63;;
80104;SDS011;69865;47.648;19.030;2023-12-04T02:49:53;25.00;;;23.73;;
80104;SDS011;69865;47.648;19.030;2023-12-04T02:50:25;23.40;;;22.17;;
80104;SDS011;69865;47.648;19.030;2023-12-04T02:50:58;22.90;;;21.73;;
80104;SDS011;69865;47.648;19.030;2023-12-04T02:51:33;23.03;;;21.60;;
80104;SDS011;69865;47.648;19.030;2023-12-04T02:52:06;23.87;;;22.47;;
80104;SDS011;69865;47.648;19.030;2023-12-04T02:52:38;23.73;;;22.43;;
80104;SDS011;69865;47.648;19.030;2023-12-04T02:53:10;23.10;;;21.70;;
80104;SDS011;69865;47.648;19.030;2023-12-04T02:53:44;23.20;;;21.90;;
80104;SDS011;69865;47.648;19.030;2023-12-04T02:54:18;22.57;;;21.33;;
80104;SDS011;69865;47.648;19.030;2023-12-04T02:54:50;23.67;;;22.37;;
80104;SDS011;69865;47.648;19.030;2023-12-04T02:55:22;24.60;;;23.30;;
80104;SDS011;69865;47.648;19.030;2023-12-04T02:55:55;21.57;;;20.67;;
80104;SDS011;69865;47.648;19.030;2023-12-04T02:56:27;22.30;;;21.33;;
80104;SDS011;69865;47.648;19.030;2023-12-04T02:57:00;23.47;;;22.50;;
80104;SDS011;69865;47.648;19.030;2023-12-04T02:57:32;24.47;;;23.03;;
80104;SDS011;69865;47.648;19.030;2023-12-04T02:58:04;23.47;;;21.93;;
80104;SDS011;69865;47.648;19.030;2023-12-04T02:58:36;22.40;;;21.03;;
80104;SDS011;69865;47.648;19.030;2023-12-04T02:59:11;22.23;;;21.03;;
80104;SDS011;69865;47.648;19.030;2023-12-04T02:59:43;23.40;;;22.17;;
80104;SDS011;69865;47.648;19.030;2023-12-04T03:00:16;22.03;;;21.00;;
80104;SDS011;69865;47.648;19.030;2023-12-04T03:00:48;22.43;;;21.50;;
80104;SDS011;69865;47.648;19.030;2023-12-04T03:01:21;22.93;;;22.03;;
80104;SDS011;69865;47.648;19.030;2023-12-04T03:01:56;21.80;;;21.10;;
80104;SDS011;69865;47.648;19.030;2023-12-04T03:02:28;21.53;;;20.70;;
80104;SDS011;69865;47.648;19.030;2023-12-04T03:03:00;23.30;;;22.23;;
80104;SDS011;69865;47.648;19.030;2023-12-04T03:03:34;22.73;;;21.80;;
80104;SDS011;69865;47.648;19.030;2023-12-04T03:04:08;21.97;;;21.13;;
80104;SDS011;69865;47.648;19.030;2023-12-04T03:04:40;22.13;;;21.37;;
80104;SDS011;69865;47.648;19.030;2023-12-04T03:05:12;22.70;;;22.10;;
80104;SDS011;69865;47.648;19.030;2023-12-04T03:05:45;22.47;;;21.73;;
80104;SDS011;69865;47.648;19.030;2023-12-04T03:06:18;21.47;;;20.67;;
80104;SDS011;69865;47.648;19.030;2023-12-04T03:06:50;22.27;;;21.43;;
80104;SDS011;69865;47.648;19.030;2023-12-04T03:07:22;23.53;;;22.53;;
80104;SDS011;69865;47.648;19.030;2023-12-04T03:07:54;22.97;;;21.87;;
80104;SDS011;69865;47.648;19.030;2023-12-04T03:08:26;23.23;;;22.00;;
80104;SDS011;69865;47.648;19.030;2023-12-04T03:08:59;25.07;;;23.57;;
80104;SDS011;69865;47.648;19.030;2023-12-04T03:09:32;23.97;;;22.53;;
80104;SDS011;69865;47.648;19.030;2023-12-04T03:10:20;24.80;;;23.47;;
80104;SDS011;69865;47.648;19.030;2023-12-04T03:10:52;26.17;;;24.87;;